Time;durP1;ratioP1;P1;durP2;ratioP2;P2;SDS_P1;SDS_P2;PMS_P1;PMS_P2;Temp;Humidity;BMP_temperature;BMP_pressure;BME280_temperature;BME280_humidity;BME280_pressure;Samples;Min_cycle;Max_cycle;Signal;HPM_P1;HPM_P2
2023/09/05 00:01:51;;;;;;;0.40;0.40;;;;;;;;;;5063262;28;20044;-75
2023/09/05 00:04:24;;;;;;;0.40;0.40;;;;;;;;;;5063008;28;20522;-76
2023/09/05 00:06:58;;;;;;;4.50;0.60;;;;;;;;;;5063052;28;20847;-78
2023/09/05 00:09:29;;;;;;;0.57;0.35;;;;;;;;;;5062127;28;20123;-76
2023/09/05 00:12:01;;;;;;;0.52;0.40;;;;;;;;;;5062971;28;20056;-79
2023/09/05 00:14:32;;;;;;;0.73;0.70;;;;;;;;;;5062866;28;20051;-76
2023/09/05 00:17:04;;;;;;;0.57;0.57;;;;;;;;;;5062990;28;20044;-76
2023/09/05 00:19:34;;;;;;;0.60;0.60;;;;;;;;;;5063368;28;20037;-76
2023/09/05 00:22:05;;;;;;;1.42;0.57;;;;;;;;;;5062770;28;20056;-77
2023/09/05 00:24:39;;;;;;;1.45;0.73;;;;;;;;;;5063240;28;20060;-77
2023/09/05 00:27:14;;;;;;;6.68;1.00;;;;;;;;;;5064092;28;20048;-78
2023/09/05 00:29:45;;;;;;;2.55;1.00;;;;;;;;;;5061781;28;20400;-75
2023/09/05 00:32:18;;;;;;;2.65;1.20;;;;;;;;;;5062758;28;20567;-77
2023/09/05 00:34:49;;;;;;;1.60;1.17;;;;;;;;;;5062544;28;20052;-76
2023/09/05 00:37:22;;;;;;;1.55;1.20;;;;;;;;;;5062982;28;20554;-78
2023/09/05 00:39:54;;;;;;;5.32;1.40;;;;;;;;;;5062128;28;20119;-78
2023/09/05 00:42:26;;;;;;;4.38;1.60;;;;;;;;;;5072080;28;20048;-78
2023/09/05 00:44:58;;;;;;;4.80;1.50;;;;;;;;;;5074788;28;20052;-78
2023/09/05 00:47:30;;;;;;;2.05;1.70;;;;;;;;;;5073621;28;20051;-77
2023/09/05 00:50:05;;;;;;;2.15;1.33;;;;;;;;;;5062000;28;20049;-79
2023/09/05 00:52:36;;;;;;;1.98;1.60;;;;;;;;;;5062155;28;20056;-77
2023/09/05 00:55:08;;;;;;;1.95;1.25;;;;;;;;;;5062639;28;20040;-80
2023/09/05 00:57:41;;;;;;;1.85;1.20;;;;;;;;;;5063684;28;21049;-79
2023/09/05 01:00:14;;;;;;;4.22;1.30;;;;;;;;;;5062708;28;20531;-77
2023/09/05 01:02:44;;;;;;;3.17;0.85;;;;;;;;;;5063182;28;20052;-78
2023/09/05 01:05:15;;;;;;;5.28;1.33;;;;;;;;;;5061671;28;20052;-80
2023/09/05 01:08:12;;;;;;;0.82;0.65;;;;;;;;;;5062205;28;20408;-77
2023/09/05 01:10:59;;;;;;;0.70;0.60;;;;;;;;;;5061438;28;20047;-77
2023/09/05 01:13:37;;;;;;;1.65;0.80;;;;;;;;;;5058967;28;20057;-77
2023/09/05 01:16:10;;;;;;;1.38;1.05;;;;;;;;;;5059680;28;20529;-75
2023/09/05 01:18:44;;;;;;;0.80;0.70;;;;;;;;;;5061919;28;20537;-76
2023/09/05 01:21:40;;;;;;;0.85;0.68;;;;;;;;;;5061189;28;20416;-76
2023/09/05 01:24:21;;;;;;;1.70;0.70;;;;;;;;;;5044282;28;20056;-75
2023/09/05 01:26:53;;;;;;;0.50;0.50;;;;;;;;;;5061564;28;20052;-76
2023/09/05 01:29:35;;;;;;;0.77;0.60;;;;;;;;;;5060586;28;20052;-77
2023/09/05 01:32:09;;;;;;;1.20;1.10;;;;;;;;;;5061622;28;20052;-76
2023/09/05 01:34:41;;;;;;;3.67;1.60;;;;;;;;;;5061120;28;20056;-78
2023/09/05 01:37:14;;;;;;;3.20;1.55;;;;;;;;;;5060543;28;20332;-77
2023/09/05 01:39:47;;;;;;;2.13;1.67;;;;;;;;;;5059790;28;20056;-77
2023/09/05 01:42:18;;;;;;;1.90;1.40;;;;;;;;;;5061942;28;20048;-78
2023/09/05 01:44:49;;;;;;;1.30;0.98;;;;;;;;;;5060719;28;20053;-75
2023/09/05 01:47:19;;;;;;;4.20;0.82;;;;;;;;;;5044131;28;20051;-76
2023/09/05 01:49:51;;;;;;;1.25;0.60;;;;;;;;;;5062276;28;20044;-74
2023/09/05 01:52:23;;;;;;;0.30;0.30;;;;;;;;;;5043990;28;20056;-75
2023/09/05 01:54:53;;;;;;;0.20;0.20;;;;;;;;;;5060529;28;20053;-75
2023/09/05 01:57:24;;;;;;;0.20;0.20;;;;;;;;;;5061656;28;20142;-75
2023/09/05 01:59:56;;;;;;;0.20;0.20;;;;;;;;;;5060160;28;20068;-74
2023/09/05 02:02:28;;;;;;;0.20;0.20;;;;;;;;;;5059805;28;20052;-73
2023/09/05 02:04:59;;;;;;;0.13;0.13;;;;;;;;;;5061470;28;20411;-74
2023/09/05 02:07:30;;;;;;;0.25;0.25;;;;;;;;;;5061371;28;20045;-78
2023/09/05 02:10:02;;;;;;;0.70;0.70;;;;;;;;;;5060514;28;20051;-74
2023/09/05 02:12:35;;;;;;;0.35;0.28;;;;;;;;;;5061464;28;20048;-74
2023/09/05 02:15:07;;;;;;;0.20;0.20;;;;;;;;;;5061898;28;20045;-75
2023/09/05 02:17:37;;;;;;;0.25;0.20;;;;;;;;;;5061771;28;20055;-74
2023/09/05 02:20:08;;;;;;;0.95;0.22;;;;;;;;;;5061497;28;20495;-75
2023/09/05 02:22:50;;;;;;;1.20;0.40;;;;;;;;;;5062093;28;20442;-74
2023/09/05 02:25:21;;;;;;;0.40;0.30;;;;;;;;;;5060866;28;20052;-75
2023/09/05 02:27:51;;;;;;;0.50;0.20;;;;;;;;;;5062028;28;21192;-73
2023/09/05 02:30:23;;;;;;;0.30;0.30;;;;;;;;;;5061810;28;20044;-74
2023/09/05 02:32:56;;;;;;;1.25;0.40;;;;;;;;;;5060260;28;20066;-74
2023/09/05 02:35:27;;;;;;;0.30;0.20;;;;;;;;;;5065412;28;20052;-74
2023/09/05 02:37:58;;;;;;;0.52;0.30;;;;;;;;;;5065324;28;20470;-74
2023/09/05 02:40:29;;;;;;;0.30;0.30;;;;;;;;;;5064529;28;20542;-75
2023/09/05 02:43:01;;;;;;;0.30;0.30;;;;;;;;;;5063587;28;20052;-74
2023/09/05 02:45:32;;;;;;;0.00;0.00;;;;;;;;;;5064530;28;20409;-74
2023/09/05 02:48:03;;;;;;;0.88;0.30;;;;;;;;;;5065112;28;20033;-76
2023/09/05 02:50:34;;;;;;;0.38;0.03;;;;;;;;;;5063349;28;20339;-74
2023/09/05 02:53:05;;;;;;;1.00;0.22;;;;;;;;;;5065044;28;20053;-75
2023/09/05 02:55:46;;;;;;;0.45;0.30;;;;;;;;;;5063536;28;20766;-76
2023/09/05 02:58:16;;;;;;;0.20;0.20;;;;;;;;;;5065032;28;20053;-76
2023/09/05 03:00:49;;;;;;;0.55;0.45;;;;;;;;;;5065045;28;20067;-75
2023/09/05 03:03:20;;;;;;;0.45;0.30;;;;;;;;;;5064976;28;20051;-75
2023/09/05 03:05:51;;;;;;;0.10;0.10;;;;;;;;;;5062464;28;20059;-76
2023/09/05 03:08:21;;;;;;;0.20;0.20;;;;;;;;;;5064252;28;20051;-74
2023/09/05 03:10:54;;;;;;;0.45;0.20;;;;;;;;;;5062550;28;20063;-76
2023/09/05 03:13:26;;;;;;;0.47;0.20;;;;;;;;;;5062791;28;20067;-76
2023/09/05 03:15:57;;;;;;;0.10;0.10;;;;;;;;;;5064656;28;20048;-73
2023/09/05 03:18:27;;;;;;;0.63;0.25;;;;;;;;;;5062032;28;20060;-73
2023/09/05 03:20:58;;;;;;;0.55;0.10;;;;;;;;;;5064676;28;20885;-75
2023/09/05 03:23:28;;;;;;;0.65;0.40;;;;;;;;;;5062754;28;20064;-74
2023/09/05 03:25:59;;;;;;;1.30;0.10;;;;;;;;;;5065196;28;20071;-74
2023/09/05 03:28:43;;;;;;;1.38;0.40;;;;;;;;;;5063007;28;20055;-74
2023/09/05 03:31:21;;;;;;;0.40;0.40;;;;;;;;;;5047612;28;20048;-75
2023/09/05 03:33:53;;;;;;;1.83;0.38;;;;;;;;;;5064363;28;20044;-74
2023/09/05 03:36:28;;;;;;;0.30;0.20;;;;;;;;;;5062625;28;20060;-73
2023/09/05 03:38:59;;;;;;;0.20;0.20;;;;;;;;;;5063172;28;20527;-73
2023/09/05 03:41:31;;;;;;;1.27;0.30;;;;;;;;;;5062074;28;20060;-73
2023/09/05 03:44:03;;;;;;;0.30;0.30;;;;;;;;;;5063499;28;20534;-73
2023/09/05 03:46:35;;;;;;;0.22;0.20;;;;;;;;;;5063644;28;20048;-74
2023/09/05 03:49:06;;;;;;;0.20;0.20;;;;;;;;;;5064013;28;20534;-74
2023/09/05 03:51:37;;;;;;;2.17;0.50;;;;;;;;;;5064686;28;20055;-74
2023/09/05 03:54:07;;;;;;;1.15;0.40;;;;;;;;;;5062082;28;20459;-73
2023/09/05 03:56:39;;;;;;;1.10;0.40;;;;;;;;;;5062919;28;20059;-73
2023/09/05 03:59:10;;;;;;;0.40;0.38;;;;;;;;;;5064214;28;20048;-73
2023/09/05 04:01:41;;;;;;;0.88;0.50;;;;;;;;;;5064180;28;20040;-73
2023/09/05 04:04:12;;;;;;;0.15;0.15;;;;;;;;;;5064113;28;20514;-72
2023/09/05 04:06:44;;;;;;;5.22;1.00;;;;;;;;;;5063741;28;20427;-74
2023/09/05 04:09:15;;;;;;;3.47;0.38;;;;;;;;;;5061734;28;20523;-73
2023/09/05 04:11:46;;;;;;;2.45;0.43;;;;;;;;;;5063962;28;20385;-73
2023/09/05 04:14:18;;;;;;;1.58;0.50;;;;;;;;;;5062105;28;20061;-73
2023/09/05 04:16:49;;;;;;;1.08;0.30;;;;;;;;;;5064230;28;20483;-73
2023/09/05 04:19:20;;;;;;;2.53;0.38;;;;;;;;;;5062273;28;20045;-74
2023/09/05 04:21:51;;;;;;;1.90;0.40;;;;;;;;;;5062849;28;20049;-73
2023/09/05 04:24:22;;;;;;;2.67;0.63;;;;;;;;;;5062356;28;20052;-73
2023/09/05 04:26:55;;;;;;;1.25;0.47;;;;;;;;;;5063337;28;20056;-73
2023/09/05 04:29:25;;;;;;;2.08;0.20;;;;;;;;;;5062850;28;20048;-72
2023/09/05 04:31:56;;;;;;;0.50;0.28;;;;;;;;;;5061863;28;20067;-72
2023/09/05 04:34:29;;;;;;;0.95;0.43;;;;;;;;;;5063454;28;20095;-73
2023/09/05 04:37:01;;;;;;;0.77;0.50;;;;;;;;;;5061433;28;20056;-73
2023/09/05 04:39:34;;;;;;;1.13;0.40;;;;;;;;;;5060809;28;20063;-82
2023/09/05 04:42:04;;;;;;;5.95;0.60;;;;;;;;;;5062706;28;20056;-72
2023/09/05 04:44:39;;;;;;;0.65;0.35;;;;;;;;;;5062530;28;20522;-73
2023/09/05 04:47:22;;;;;;;0.70;0.20;;;;;;;;;;5062767;28;20036;-73
2023/09/05 04:49:58;;;;;;;1.00;0.40;;;;;;;;;;5062565;28;20059;-73
2023/09/05 04:52:29;;;;;;;1.92;0.52;;;;;;;;;;5063274;28;20059;-72
2023/09/05 04:55:00;;;;;;;2.55;0.43;;;;;;;;;;5063173;28;20049;-73
2023/09/05 04:57:31;;;;;;;2.00;0.35;;;;;;;;;;5062115;28;20056;-73
2023/09/05 05:00:02;;;;;;;3.72;0.73;;;;;;;;;;5062744;28;20522;-72
2023/09/05 05:02:35;;;;;;;1.98;0.30;;;;;;;;;;5061752;28;20046;-72
2023/09/05 05:05:06;;;;;;;2.78;0.50;;;;;;;;;;5062460;28;20044;-73
2023/09/05 05:07:41;;;;;;;0.47;0.40;;;;;;;;;;5062532;28;20049;-73
2023/09/05 05:10:12;;;;;;;2.55;0.40;;;;;;;;;;5062310;28;20048;-72
2023/09/05 05:12:43;;;;;;;1.77;0.40;;;;;;;;;;5061915;28;20415;-72
2023/09/05 05:15:13;;;;;;;4.18;0.35;;;;;;;;;;5062082;28;20040;-73
2023/09/05 05:17:44;;;;;;;0.40;0.30;;;;;;;;;;5062120;28;20049;-73
2023/09/05 05:20:17;;;;;;;0.10;0.05;;;;;;;;;;5061183;28;20048;-73
2023/09/05 05:22:47;;;;;;;1.25;0.20;;;;;;;;;;5062642;28;20411;-73
2023/09/05 05:25:17;;;;;;;0.85;0.40;;;;;;;;;;5062822;28;20048;-73
2023/09/05 05:27:48;;;;;;;1.65;0.22;;;;;;;;;;5063109;28;20411;-72
2023/09/05 05:30:18;;;;;;;0.75;0.20;;;;;;;;;;5061270;28;20048;-72
2023/09/05 05:32:49;;;;;;;6.22;0.40;;;;;;;;;;5060748;28;20515;-72
2023/09/05 05:35:24;;;;;;;;;;;;;;;;;;5062469;28;20068;-72
2023/09/05 05:37:54;;;;;;;1.95;0.50;;;;;;;;;;5061704;28;20308;-72
2023/09/05 05:40:24;;;;;;;2.13;0.40;;;;;;;;;;5061975;28;20037;-73
2023/09/05 05:42:55;;;;;;;0.22;0.13;;;;;;;;;;5062322;28;20052;-72
2023/09/05 05:45:27;;;;;;;1.83;0.55;;;;;;;;;;5062839;28;20055;-73
2023/09/05 05:47:57;;;;;;;6.63;0.40;;;;;;;;;;5061723;28;20036;-72
2023/09/05 05:50:27;;;;;;;4.00;0.50;;;;;;;;;;5061999;28;20048;-72
2023/09/05 05:52:57;;;;;;;3.83;0.70;;;;;;;;;;5062152;28;20056;-72
2023/09/05 05:55:28;;;;;;;4.20;0.75;;;;;;;;;;5061696;28;20044;-73
2023/09/05 05:58:01;;;;;;;7.25;0.82;;;;;;;;;;5061726;28;20053;-73
2023/09/05 06:00:31;;;;;;;5.97;0.90;;;;;;;;;;5062135;28;20044;-73
2023/09/05 06:03:01;;;;;;;4.20;0.63;;;;;;;;;;5062007;28;20045;-73
2023/09/05 06:05:33;;;;;;;1.67;0.75;;;;;;;;;;5061901;28;20048;-73
2023/09/05 06:08:03;;;;;;;1.98;0.70;;;;;;;;;;5061676;28;20044;-72
2023/09/05 06:10:34;;;;;;;2.38;0.57;;;;;;;;;;5065678;28;20053;-72
2023/09/05 06:13:05;;;;;;;2.58;0.63;;;;;;;;;;5066230;28;20043;-73
2023/09/05 06:15:38;;;;;;;4.57;0.80;;;;;;;;;;5066120;28;20052;-72
2023/09/05 06:18:10;;;;;;;3.80;0.57;;;;;;;;;;5065434;28;20538;-73
2023/09/05 06:20:43;;;;;;;4.70;0.57;;;;;;;;;;5065347;28;20048;-72
2023/09/05 06:23:13;;;;;;;8.00;0.77;;;;;;;;;;5065827;28;20056;-73
2023/09/05 06:25:44;;;;;;;3.70;0.50;;;;;;;;;;5065101;28;20581;-72
2023/09/05 06:28:15;;;;;;;7.13;0.77;;;;;;;;;;5065636;28;20059;-72
2023/09/05 06:30:46;;;;;;;3.97;0.77;;;;;;;;;;5065546;28;20527;-72
2023/09/05 06:33:16;;;;;;;4.10;1.10;;;;;;;;;;5065214;28;20045;-73
2023/09/05 06:35:46;;;;;;;9.20;0.90;;;;;;;;;;5065931;28;20052;-72
2023/09/05 06:38:17;;;;;;;3.15;0.80;;;;;;;;;;5065147;28;20051;-72
2023/09/05 06:40:48;;;;;;;2.88;0.68;;;;;;;;;;5065218;28;20056;-72
2023/09/05 06:43:18;;;;;;;5.72;1.10;;;;;;;;;;5065768;28;20052;-72
2023/09/05 06:45:48;;;;;;;1.55;0.55;;;;;;;;;;5065275;28;20044;-72
2023/09/05 06:48:18;;;;;;;4.28;0.63;;;;;;;;;;5065472;28;20090;-72
2023/09/05 06:50:50;;;;;;;7.20;1.00;;;;;;;;;;5066224;28;20053;-72
2023/09/05 06:53:20;;;;;;;6.35;0.75;;;;;;;;;;5065743;28;20052;-73
2023/09/05 06:55:51;;;;;;;4.65;0.82;;;;;;;;;;5064894;28;20051;-74
2023/09/05 06:58:26;;;;;;;5.10;0.88;;;;;;;;;;5065064;28;20052;-72
2023/09/05 07:00:57;;;;;;;2.20;0.60;;;;;;;;;;5065118;28;20397;-72
2023/09/05 07:03:28;;;;;;;8.25;1.05;;;;;;;;;;5064494;28;20495;-72
2023/09/05 07:06:02;;;;;;;6.03;0.85;;;;;;;;;;5065696;28;20071;-72
2023/09/05 07:08:35;;;;;;;7.32;1.10;;;;;;;;;;5065889;28;20471;-72
2023/09/05 07:11:06;;;;;;;12.02;1.30;;;;;;;;;;5065447;28;20419;-72
2023/09/05 07:13:37;;;;;;;9.77;1.00;;;;;;;;;;5064440;28;20132;-72
2023/09/05 07:16:08;;;;;;;10.70;1.42;;;;;;;;;;5065331;28;20122;-72
2023/09/05 07:18:38;;;;;;;10.20;1.00;;;;;;;;;;5064791;28;20119;-72
2023/09/05 07:21:09;;;;;;;11.82;2.13;;;;;;;;;;5065742;28;20051;-72
2023/09/05 07:23:40;;;;;;;9.90;1.40;;;;;;;;;;5065526;28;20083;-73
2023/09/05 07:26:11;;;;;;;13.43;1.63;;;;;;;;;;5065478;28;20430;-72
2023/09/05 07:28:46;;;;;;;9.57;1.17;;;;;;;;;;5063748;28;20052;-73
2023/09/05 07:31:17;;;;;;;12.75;1.65;;;;;;;;;;5065297;28;20416;-72
2023/09/05 07:33:50;;;;;;;10.40;1.25;;;;;;;;;;5064717;28;20040;-73
2023/09/05 07:36:20;;;;;;;10.30;1.08;;;;;;;;;;5064030;28;20507;-73
2023/09/05 07:38:50;;;;;;;14.13;1.85;;;;;;;;;;5064636;28;20050;-73
2023/09/05 07:41:20;;;;;;;14.32;1.65;;;;;;;;;;5064249;28;20055;-72
2023/09/05 07:43:51;;;;;;;15.15;1.27;;;;;;;;;;5063134;28;20060;-73
2023/09/05 07:46:21;;;;;;;11.15;1.40;;;;;;;;;;5064266;28;20044;-72
2023/09/05 07:48:53;;;;;;;17.15;2.00;;;;;;;;;;5065033;28;20055;-73
2023/09/05 07:51:23;;;;;;;12.73;1.50;;;;;;;;;;5063233;28;20057;-72
2023/09/05 07:54:06;;;;;;;9.23;1.58;;;;;;;;;;5063943;28;20499;-72
2023/09/05 07:56:39;;;;;;;14.23;1.80;;;;;;;;;;5063680;28;20052;-72
2023/09/05 07:59:11;;;;;;;11.82;1.63;;;;;;;;;;5063915;28;20468;-73
2023/09/05 08:01:41;;;;;;;19.05;1.70;;;;;;;;;;5062295;28;20048;-73
2023/09/05 08:04:11;;;;;;;12.73;1.38;;;;;;;;;;5063577;28;20056;-72
2023/09/05 08:06:42;;;;;;;10.10;1.60;;;;;;;;;;5063703;28;20048;-73
2023/09/05 08:09:13;;;;;;;22.05;2.15;;;;;;;;;;5063445;28;20048;-73
2023/09/05 08:11:44;;;;;;;19.60;2.00;;;;;;;;;;5062642;28;20044;-72
2023/09/05 08:14:14;;;;;;;18.75;2.05;;;;;;;;;;5062609;28;20047;-73
2023/09/05 08:16:44;;;;;;;37.10;2.75;;;;;;;;;;5063827;28;20056;-72
2023/09/05 08:19:16;;;;;;;26.10;2.38;;;;;;;;;;5061807;28;20055;-72
2023/09/05 08:21:48;;;;;;;19.00;2.22;;;;;;;;;;5063342;28;20048;-72
2023/09/05 08:24:18;;;;;;;19.55;2.35;;;;;;;;;;5063196;28;20494;-72
2023/09/05 08:26:48;;;;;;;15.60;1.95;;;;;;;;;;5063299;28;20044;-72
2023/09/05 08:29:19;;;;;;;15.57;2.15;;;;;;;;;;5063906;28;20075;-72
2023/09/05 08:31:50;;;;;;;22.98;2.47;;;;;;;;;;5062508;28;20040;-72
2023/09/05 08:34:21;;;;;;;20.42;2.83;;;;;;;;;;5063468;28;20045;-73
2023/09/05 08:36:51;;;;;;;13.60;2.28;;;;;;;;;;5062497;28;20045;-73
2023/09/05 08:39:21;;;;;;;18.88;2.35;;;;;;;;;;5063044;28;20997;-72
2023/09/05 08:41:52;;;;;;;29.90;2.30;;;;;;;;;;5062968;28;20044;-72
2023/09/05 08:44:24;;;;;;;15.27;1.83;;;;;;;;;;5062868;28;20075;-72
2023/09/05 08:46:54;;;;;;;11.38;1.92;;;;;;;;;;5062787;28;20044;-72
2023/09/05 08:49:25;;;;;;;22.08;2.15;;;;;;;;;;5063801;28;20053;-72
2023/09/05 08:51:57;;;;;;;23.63;2.25;;;;;;;;;;5062581;28;20053;-73
2023/09/05 08:54:30;;;;;;;21.42;2.65;;;;;;;;;;5062799;28;20047;-72
2023/09/05 08:57:03;;;;;;;19.63;2.97;;;;;;;;;;5062390;28;20550;-72
2023/09/05 08:59:33;;;;;;;21.85;2.60;;;;;;;;;;5062640;28;20527;-74
2023/09/05 09:02:04;;;;;;;25.02;2.75;;;;;;;;;;5062814;28;20052;-74
2023/09/05 09:04:52;;;;;;;24.00;3.60;;;;;;;;;;5063228;28;20044;-73
2023/09/05 09:07:28;;;;;;;23.52;2.45;;;;;;;;;;5062335;28;20067;-73
2023/09/05 09:10:00;;;;;;;32.33;2.50;;;;;;;;;;5059148;28;20525;-73
2023/09/05 09:12:33;;;;;;;20.13;2.47;;;;;;;;;;5058844;28;20045;-73
2023/09/05 09:15:11;;;;;;;24.70;2.78;;;;;;;;;;5060471;28;20044;-73
2023/09/05 09:17:48;;;;;;;16.55;2.88;;;;;;;;;;5060081;28;20040;-73
2023/09/05 09:20:23;;;;;;;22.70;2.67;;;;;;;;;;5061275;28;20061;-73
2023/09/05 09:22:53;;;;;;;21.17;1.67;;;;;;;;;;5059927;28;20075;-73
2023/09/05 09:25:23;;;;;;;20.33;2.20;;;;;;;;;;5062188;28;20052;-73
2023/09/05 09:27:58;;;;;;;20.08;2.15;;;;;;;;;;5061684;28;20072;-73
2023/09/05 09:30:30;;;;;;;29.10;2.60;;;;;;;;;;5062283;28;20059;-73
2023/09/05 09:33:01;;;;;;;30.25;3.17;;;;;;;;;;5062553;28;20380;-73
2023/09/05 09:35:36;;;;;;;23.50;2.60;;;;;;;;;;5044825;28;20049;-73
2023/09/05 09:38:07;;;;;;;15.90;2.40;;;;;;;;;;5062911;28;20044;-74
2023/09/05 09:40:40;;;;;;;18.70;2.08;;;;;;;;;;5062600;28;20052;-73
2023/09/05 09:43:11;;;;;;;20.85;2.78;;;;;;;;;;5061355;28;20052;-73
2023/09/05 09:45:41;;;;;;;16.48;2.30;;;;;;;;;;5060246;28;20499;-73
2023/09/05 09:48:18;;;;;;;25.73;2.92;;;;;;;;;;5061542;28;20064;-73
2023/09/05 09:50:50;;;;;;;17.35;2.45;;;;;;;;;;5028532;28;20055;-74
2023/09/05 09:53:36;;;;;;;19.15;2.70;;;;;;;;;;5061979;28;20040;-74
2023/09/05 09:56:12;;;;;;;20.92;2.42;;;;;;;;;;5061716;28;20047;-75
2023/09/05 09:58:46;;;;;;;22.80;2.25;;;;;;;;;;5060181;28;20057;-82
2023/09/05 10:01:18;;;;;;;16.23;2.20;;;;;;;;;;5062363;28;20048;-73
2023/09/05 10:03:49;;;;;;;16.33;2.17;;;;;;;;;;5062128;28;20056;-73
2023/09/05 10:06:21;;;;;;;18.70;2.42;;;;;;;;;;5061928;28;20051;-72
2023/09/05 10:08:53;;;;;;;10.88;2.42;;;;;;;;;;5061240;28;20056;-73
2023/09/05 10:11:26;;;;;;;14.40;1.73;;;;;;;;;;5061377;28;20051;-73
2023/09/05 10:13:59;;;;;;;17.13;2.63;;;;;;;;;;5062489;28;20052;-75
2023/09/05 10:16:30;;;;;;;23.90;2.80;;;;;;;;;;5061240;28;20053;-76
2023/09/05 10:19:03;;;;;;;21.10;4.18;;;;;;;;;;5061308;28;20048;-76
2023/09/05 10:21:36;;;;;;;19.00;2.55;;;;;;;;;;5061058;28;20865;-73
2023/09/05 10:24:07;;;;;;;26.10;2.75;;;;;;;;;;5061654;28;20079;-73
2023/09/05 10:26:38;;;;;;;19.45;2.55;;;;;;;;;;5060237;28;20048;-73
2023/09/05 10:29:41;;;;;;;17.75;2.72;;;;;;;;;;5060732;28;20055;-73
2023/09/05 10:32:24;;;;;;;16.98;2.65;;;;;;;;;;5056545;28;20070;-72
2023/09/05 10:35:02;;;;;;;15.90;3.30;;;;;;;;;;5061117;28;20769;-77
2023/09/05 10:37:34;;;;;;;19.77;2.53;;;;;;;;;;5061915;28;20049;-73
2023/09/05 10:40:08;;;;;;;17.63;3.33;;;;;;;;;;5060797;28;20629;-72
2023/09/05 10:42:54;;;;;;;11.65;2.55;;;;;;;;;;5061520;28;20037;-77
2023/09/05 10:45:25;;;;;;;19.67;3.20;;;;;;;;;;5061422;28;20044;-73
2023/09/05 10:48:15;;;;;;;17.70;2.42;;;;;;;;;;5061184;28;20045;-73
2023/09/05 10:51:07;;;;;;;14.63;2.70;;;;;;;;;;5062358;28;21071;-73
2023/09/05 10:53:42;;;;;;;19.25;3.35;;;;;;;;;;5061367;28;20040;-72
2023/09/05 10:56:43;;;;;;;18.92;2.50;;;;;;;;;;5064844;28;20414;-73
2023/09/05 10:59:27;;;;;;;11.70;2.15;;;;;;;;;;5065015;28;20380;-73
2023/09/05 11:02:02;;;;;;;18.70;2.38;;;;;;;;;;5064696;28;20044;-73
2023/09/05 11:04:34;;;;;;;13.52;2.72;;;;;;;;;;5064674;28;20053;-73
2023/09/05 11:07:10;;;;;;;13.68;2.25;;;;;;;;;;5064964;28;20052;-72
2023/09/05 11:09:41;;;;;;;12.88;2.10;;;;;;;;;;5063847;28;20048;-73
2023/09/05 11:12:13;;;;;;;14.45;2.08;;;;;;;;;;5046632;28;20512;-73
2023/09/05 11:14:44;;;;;;;14.05;2.72;;;;;;;;;;5064329;28;20053;-73
2023/09/05 11:17:17;;;;;;;13.20;2.70;;;;;;;;;;5064355;28;20111;-73
2023/09/05 11:19:50;;;;;;;20.15;2.38;;;;;;;;;;5064114;28;20048;-73
2023/09/05 11:22:23;;;;;;;16.90;2.67;;;;;;;;;;5064010;28;20496;-73
2023/09/05 11:24:59;;;;;;;9.52;1.92;;;;;;;;;;5064456;28;20115;-74
2023/09/05 11:27:32;;;;;;;11.52;2.13;;;;;;;;;;5064626;28;20052;-73
2023/09/05 11:30:09;;;;;;;11.27;1.88;;;;;;;;;;5064191;28;20419;-78
2023/09/05 11:32:42;;;;;;;8.27;1.83;;;;;;;;;;5064060;28;20053;-72
2023/09/05 11:35:14;;;;;;;18.85;2.70;;;;;;;;;;5064480;28;20055;-72
2023/09/05 11:37:46;;;;;;;12.27;2.45;;;;;;;;;;5064057;28;20419;-72
2023/09/05 11:40:20;;;;;;;11.40;1.83;;;;;;;;;;5063932;28;20052;-74
2023/09/05 11:43:03;;;;;;;13.48;2.20;;;;;;;;;;5062562;28;20976;-72
2023/09/05 11:45:37;;;;;;;17.13;2.08;;;;;;;;;;5063592;28;20048;-72
2023/09/05 11:48:14;;;;;;;9.60;2.55;;;;;;;;;;5063968;28;20041;-73
2023/09/05 11:50:46;;;;;;;15.05;2.28;;;;;;;;;;5064702;28;20047;-72
2023/09/05 11:53:20;;;;;;;10.35;1.92;;;;;;;;;;5063217;28;20479;-73
2023/09/05 11:55:51;;;;;;;15.73;2.53;;;;;;;;;;5063513;28;20053;-73
2023/09/05 11:58:22;;;;;;;14.60;2.70;;;;;;;;;;5062323;28;20085;-78
2023/09/05 12:00:53;;;;;;;10.77;2.20;;;;;;;;;;5063666;28;20094;-73
2023/09/05 12:03:25;;;;;;;12.20;2.25;;;;;;;;;;5063856;28;20510;-72
2023/09/05 12:05:55;;;;;;;18.50;2.53;;;;;;;;;;5063858;28;20537;-72
2023/09/05 12:08:25;;;;;;;13.98;1.98;;;;;;;;;;5062516;28;20056;-73
2023/09/05 12:11:06;;;;;;;15.98;2.50;;;;;;;;;;5063704;28;20048;-72
2023/09/05 12:13:37;;;;;;;13.02;3.03;;;;;;;;;;5063517;28;20799;-72
2023/09/05 12:16:10;;;;;;;18.05;2.55;;;;;;;;;;5063139;28;20048;-72
2023/09/05 12:18:41;;;;;;;16.25;2.53;;;;;;;;;;5063211;28;20527;-72
2023/09/05 12:21:15;;;;;;;23.10;3.00;;;;;;;;;;5063411;28;20527;-72
2023/09/05 12:23:47;;;;;;;11.57;2.30;;;;;;;;;;5062698;28;20420;-72
2023/09/05 12:26:18;;;;;;;30.33;3.58;;;;;;;;;;5063448;28;20407;-72
2023/09/05 12:28:58;;;;;;;18.13;2.92;;;;;;;;;;5063215;28;20044;-72
2023/09/05 12:31:28;;;;;;;9.93;2.58;;;;;;;;;;5063502;28;20044;-72
2023/09/05 12:33:58;;;;;;;19.23;2.10;;;;;;;;;;5063641;28;20037;-72
2023/09/05 12:36:30;;;;;;;18.67;2.67;;;;;;;;;;5063696;28;20056;-72
2023/09/05 12:39:01;;;;;;;10.30;1.95;;;;;;;;;;5062912;28;20048;-72
2023/09/05 12:41:31;;;;;;;13.32;2.58;;;;;;;;;;5062839;28;20051;-76
2023/09/05 12:44:01;;;;;;;16.92;2.67;;;;;;;;;;5062248;28;20060;-72
2023/09/05 12:46:34;;;;;;;10.57;2.50;;;;;;;;;;5063001;28;20047;-71
2023/09/05 12:49:06;;;;;;;12.52;2.35;;;;;;;;;;5062674;28;20052;-72
2023/09/05 12:51:37;;;;;;;20.45;2.70;;;;;;;;;;5062136;28;20041;-72
2023/09/05 12:54:08;;;;;;;18.17;2.65;;;;;;;;;;5064907;28;20048;-72
2023/09/05 12:56:40;;;;;;;11.77;2.33;;;;;;;;;;5062292;28;20102;-72
2023/09/05 12:59:11;;;;;;;12.48;1.92;;;;;;;;;;5062278;28;20507;-81
2023/09/05 13:01:41;;;;;;;17.73;2.90;;;;;;;;;;5062133;28;20044;-72
2023/09/05 13:04:12;;;;;;;13.13;2.17;;;;;;;;;;5062984;28;20049;-72
2023/09/05 13:06:44;;;;;;;17.42;2.38;;;;;;;;;;5062906;28;20396;-72
2023/09/05 13:09:15;;;;;;;14.02;2.63;;;;;;;;;;5062165;28;20075;-76
2023/09/05 13:11:47;;;;;;;15.52;2.78;;;;;;;;;;5062290;28;20055;-72
2023/09/05 13:14:17;;;;;;;17.52;2.90;;;;;;;;;;5062084;28;20059;-72
2023/09/05 13:16:48;;;;;;;17.20;2.78;;;;;;;;;;5061725;28;20048;-72
2023/09/05 13:19:19;;;;;;;12.57;1.83;;;;;;;;;;5062037;28;20040;-72
2023/09/05 13:21:50;;;;;;;16.58;2.17;;;;;;;;;;5062066;28;20056;-72
2023/09/05 13:24:20;;;;;;;15.30;2.30;;;;;;;;;;5061724;28;20083;-71
2023/09/05 13:26:50;;;;;;;13.00;2.03;;;;;;;;;;5061774;28;20586;-74
2023/09/05 13:29:21;;;;;;;15.52;2.92;;;;;;;;;;5061830;28;20056;-72
2023/09/05 13:31:53;;;;;;;15.35;2.50;;;;;;;;;;5061927;28;20056;-72
2023/09/05 13:34:24;;;;;;;12.07;2.42;;;;;;;;;;5062228;28;20045;-71
2023/09/05 13:36:56;;;;;;;14.18;2.20;;;;;;;;;;5062034;28;20045;-72
2023/09/05 13:39:27;;;;;;;9.45;1.90;;;;;;;;;;5061826;28;20056;-72
2023/09/05 13:41:59;;;;;;;15.80;3.03;;;;;;;;;;5043769;28;20044;-71
2023/09/05 13:44:32;;;;;;;15.27;2.05;;;;;;;;;;5060148;28;20059;-72
2023/09/05 13:47:03;;;;;;;15.07;2.20;;;;;;;;;;5061939;28;20056;-72
2023/09/05 13:49:34;;;;;;;14.48;2.25;;;;;;;;;;5043437;28;20052;-71
2023/09/05 13:52:06;;;;;;;9.18;2.75;;;;;;;;;;5061709;28;20396;-73
2023/09/05 13:54:39;;;;;;;11.73;3.08;;;;;;;;;;5060941;28;20051;-73
2023/09/05 13:57:12;;;;;;;8.57;2.28;;;;;;;;;;5061765;28;20838;-72
2023/09/05 13:59:44;;;;;;;11.18;1.92;;;;;;;;;;5062291;28;20044;-73
2023/09/05 14:02:15;;;;;;;11.32;2.35;;;;;;;;;;5061484;28;20049;-72
2023/09/05 14:04:44;;;;;;;18.35;2.63;;;;;;;;;;5061639;28;20045;-72
2023/09/05 14:07:15;;;;;;;17.42;2.33;;;;;;;;;;5061198;28;20535;-72
2023/09/05 14:09:46;;;;;;;12.88;2.08;;;;;;;;;;5060600;28;20052;-72
2023/09/05 14:12:18;;;;;;;18.02;5.78;;;;;;;;;;5061473;28;20051;-73
2023/09/05 14:14:48;;;;;;;20.42;2.80;;;;;;;;;;5061763;28;20045;-72
2023/09/05 14:17:18;;;;;;;18.77;2.65;;;;;;;;;;5061497;28;20111;-72
2023/09/05 14:19:51;;;;;;;15.25;2.90;;;;;;;;;;5061263;28;20045;-72
2023/09/05 14:22:22;;;;;;;12.68;2.47;;;;;;;;;;5061056;28;20048;-73
2023/09/05 14:24:53;;;;;;;13.40;2.40;;;;;;;;;;5061684;28;20055;-73
2023/09/05 14:27:23;;;;;;;14.18;2.38;;;;;;;;;;5059781;28;20051;-71
2023/09/05 14:29:54;;;;;;;18.67;3.08;;;;;;;;;;5061659;28;20549;-72
2023/09/05 14:32:24;;;;;;;11.00;2.53;;;;;;;;;;5065778;28;20620;-73
2023/09/05 14:34:56;;;;;;;20.48;3.00;;;;;;;;;;5065221;28;20048;-72
2023/09/05 14:37:26;;;;;;;16.13;3.08;;;;;;;;;;5065275;28;20055;-72
2023/09/05 14:39:56;;;;;;;14.68;3.67;;;;;;;;;;5065167;28;20052;-76
2023/09/05 14:42:31;;;;;;;14.38;2.63;;;;;;;;;;5064911;28;20057;-72
2023/09/05 14:45:08;;;;;;;20.05;4.63;;;;;;;;;;5064981;28;20056;-72
2023/09/05 14:47:39;;;;;;;9.25;2.22;;;;;;;;;;5064986;28;20044;-71
2023/09/05 14:50:09;;;;;;;15.32;2.45;;;;;;;;;;5065507;28;20048;-77
2023/09/05 14:52:40;;;;;;;15.65;2.60;;;;;;;;;;5064571;28;20549;-71
2023/09/05 14:55:12;;;;;;;18.35;2.60;;;;;;;;;;5064818;28;20419;-72
2023/09/05 14:57:43;;;;;;;8.25;2.20;;;;;;;;;;5064422;28;20055;-71
2023/09/05 15:00:16;;;;;;;21.65;2.85;;;;;;;;;;5064694;28;20052;-73
2023/09/05 15:02:47;;;;;;;12.10;2.53;;;;;;;;;;5063240;28;20131;-72
2023/09/05 15:05:17;;;;;;;13.45;2.20;;;;;;;;;;5065432;28;20048;-73
2023/09/05 15:07:50;;;;;;;11.40;2.70;;;;;;;;;;5065003;28;20502;-72